sensor_id;sensor_type;location;lat;lon;timestamp;noise_LAeq;noise_LA_min;noise_LA_max;noise_LA01;noise_LA95
47923;Laerm;33688;44.354;9.228;2023-11-21T00:01:54;36.70;35.20;41.18;;
47923;Laerm;33688;44.354;9.228;2023-11-21T00:04:20;36.75;35.20;41.57;;
47923;Laerm;33688;44.354;9.228;2023-11-21T00:06:46;36.72;35.20;41.07;;
47923;Laerm;33688;44.354;9.228;2023-11-21T00:09:14;36.70;35.03;40.89;;
47923;Laerm;33688;44.354;9.228;2023-11-21T00:11:41;36.73;35.29;41.27;;
47923;Laerm;33688;44.354;9.228;2023-11-21T00:14:07;36.71;35.16;41.16;;
47923;Laerm;33688;44.354;9.228;2023-11-21T00:16:34;36.73;35.21;41.10;;
47923;Laerm;33688;44.354;9.228;2023-11-21T00:19:00;36.73;35.22;41.33;;
47923;Laerm;33688;44.354;9.228;2023-11-21T00:21:26;36.75;35.18;41.26;;
47923;Laerm;33688;44.354;9.228;2023-11-21T00:23:52;36.73;35.15;40.99;;
47923;Laerm;33688;44.354;9.228;2023-11-21T00:26:17;36.72;35.30;41.21;;
47923;Laerm;33688;44.354;9.228;2023-11-21T00:28:50;36.62;34.96;40.95;;
47923;Laerm;33688;44.354;9.228;2023-11-21T00:31:17;36.66;35.13;41.16;;
47923;Laerm;33688;44.354;9.228;2023-11-21T00:33:42;36.64;35.18;41.04;;
47923;Laerm;33688;44.354;9.228;2023-11-21T00:36:09;36.66;35.09;41.09;;
47923;Laerm;33688;44.354;9.228;2023-11-21T00:38:38;36.66;35.18;41.17;;
47923;Laerm;33688;44.354;9.228;2023-11-21T00:41:06;36.58;35.11;40.89;;
47923;Laerm;33688;44.354;9.228;2023-11-21T00:43:32;36.65;35.06;41.22;;
47923;Laerm;33688;44.354;9.228;2023-11-21T00:46:04;36.64;35.09;41.13;;
47923;Laerm;33688;44.354;9.228;2023-11-21T00:48:33;36.63;35.06;40.96;;
47923;Laerm;33688;44.354;9.228;2023-11-21T00:51:00;36.66;35.15;40.97;;
47923;Laerm;33688;44.354;9.228;2023-11-21T00:53:26;36.65;35.03;41.17;;
47923;Laerm;33688;44.354;9.228;2023-11-21T00:55:52;36.67;35.21;41.12;;
47923;Laerm;33688;44.354;9.228;2023-11-21T00:58:24;36.65;35.24;41.20;;
47923;Laerm;33688;44.354;9.228;2023-11-21T01:00:50;36.68;35.07;42.19;;
47923;Laerm;33688;44.354;9.228;2023-11-21T01:03:16;36.68;35.06;41.12;;
47923;Laerm;33688;44.354;9.228;2023-11-21T01:05:41;36.65;35.11;41.19;;
47923;Laerm;33688;44.354;9.228;2023-11-21T01:08:07;36.69;35.09;41.15;;
47923;Laerm;33688;44.354;9.228;2023-11-21T01:10:33;36.66;35.13;41.34;;
47923;Laerm;33688;44.354;9.228;2023-11-21T01:13:02;36.66;35.13;41.31;;
47923;Laerm;33688;44.354;9.228;2023-11-21T01:15:31;36.66;35.18;41.07;;
47923;Laerm;33688;44.354;9.228;2023-11-21T01:17:56;36.67;35.19;41.82;;
47923;Laerm;33688;44.354;9.228;2023-11-21T01:20:22;36.68;35.10;41.33;;
47923;Laerm;33688;44.354;9.228;2023-11-21T01:22:48;36.65;35.13;40.84;;
47923;Laerm;33688;44.354;9.228;2023-11-21T01:25:16;36.64;35.05;41.11;;
47923;Laerm;33688;44.354;9.228;2023-11-21T01:27:43;36.66;35.12;41.21;;
47923;Laerm;33688;44.354;9.228;2023-11-21T01:30:09;36.66;35.21;40.95;;
47923;Laerm;33688;44.354;9.228;2023-11-21T01:32:38;36.65;35.19;41.15;;
47923;Laerm;33688;44.354;9.228;2023-11-21T01:35:05;36.65;35.11;41.06;;
47923;Laerm;33688;44.354;9.228;2023-11-21T01:37:32;36.64;35.08;41.33;;
47923;Laerm;33688;44.354;9.228;2023-11-21T01:39:59;36.64;35.04;41.36;;
47923;Laerm;33688;44.354;9.228;2023-11-21T01:42:27;36.65;35.16;41.41;;
47923;Laerm;33688;44.354;9.228;2023-11-21T01:44:55;36.63;35.16;41.48;;
47923;Laerm;33688;44.354;9.228;2023-11-21T01:47:20;36.65;35.09;40.99;;
47923;Laerm;33688;44.354;9.228;2023-11-21T01:49:49;36.65;34.79;41.30;;
47923;Laerm;33688;44.354;9.228;2023-11-21T01:52:15;36.62;35.09;41.16;;
47923;Laerm;33688;44.354;9.228;2023-11-21T01:54:42;36.66;35.05;41.27;;
47923;Laerm;33688;44.354;9.228;2023-11-21T01:57:08;36.65;35.13;41.00;;
47923;Laerm;33688;44.354;9.228;2023-11-21T01:59:37;36.65;35.23;41.33;;
47923;Laerm;33688;44.354;9.228;2023-11-21T02:02:07;36.66;35.11;41.18;;
47923;Laerm;33688;44.354;9.228;2023-11-21T02:04:37;36.67;35.05;41.09;;
47923;Laerm;33688;44.354;9.228;2023-11-21T02:07:03;36.65;35.01;41.15;;
47923;Laerm;33688;44.354;9.228;2023-11-21T02:09:32;36.71;35.24;41.15;;
47923;Laerm;33688;44.354;9.228;2023-11-21T02:12:00;36.68;35.15;41.14;;
47923;Laerm;33688;44.354;9.228;2023-11-21T02:14:27;36.69;35.07;43.63;;
47923;Laerm;33688;44.354;9.228;2023-11-21T02:16:55;36.68;35.13;40.98;;
47923;Laerm;33688;44.354;9.228;2023-11-21T02:19:23;36.66;35.10;41.04;;
47923;Laerm;33688;44.354;9.228;2023-11-21T02:21:54;36.65;35.10;41.19;;
47923;Laerm;33688;44.354;9.228;2023-11-21T02:24:24;36.67;34.92;41.45;;
47923;Laerm;33688;44.354;9.228;2023-11-21T02:26:51;36.67;35.15;41.10;;
47923;Laerm;33688;44.354;9.228;2023-11-21T02:29:21;36.66;35.06;41.21;;
47923;Laerm;33688;44.354;9.228;2023-11-21T02:31:55;36.61;35.06;41.06;;
47923;Laerm;33688;44.354;9.228;2023-11-21T02:34:22;36.66;35.07;41.26;;
47923;Laerm;33688;44.354;9.228;2023-11-21T02:36:48;36.65;35.00;41.07;;
47923;Laerm;33688;44.354;9.228;2023-11-21T02:39:33;36.61;35.04;41.30;;
47923;Laerm;33688;44.354;9.228;2023-11-21T02:42:00;36.68;35.20;41.18;;
47923;Laerm;33688;44.354;9.228;2023-11-21T02:44:26;36.70;35.08;41.37;;
47923;Laerm;33688;44.354;9.228;2023-11-21T02:46:52;36.99;35.15;42.19;;
47923;Laerm;33688;44.354;9.228;2023-11-21T02:49:18;37.19;35.62;41.18;;
47923;Laerm;33688;44.354;9.228;2023-11-21T02:51:43;37.23;35.86;41.26;;
47923;Laerm;33688;44.354;9.228;2023-11-21T02:54:09;37.20;35.81;41.63;;
47923;Laerm;33688;44.354;9.228;2023-11-21T02:56:35;37.18;35.74;41.18;;
47923;Laerm;33688;44.354;9.228;2023-11-21T02:59:03;37.15;35.76;41.34;;
47923;Laerm;33688;44.354;9.228;2023-11-21T03:01:30;37.18;35.81;41.29;;
47923;Laerm;33688;44.354;9.228;2023-11-21T03:03:56;37.16;35.68;41.36;;
47923;Laerm;33688;44.354;9.228;2023-11-21T03:06:22;37.19;35.77;41.40;;
47923;Laerm;33688;44.354;9.228;2023-11-21T03:08:49;37.17;35.67;41.40;;
47923;Laerm;33688;44.354;9.228;2023-11-21T03:11:14;37.17;35.77;41.19;;
47923;Laerm;33688;44.354;9.228;2023-11-21T03:13:41;37.17;35.69;41.37;;
47923;Laerm;33688;44.354;9.228;2023-11-21T03:16:10;37.13;35.78;41.28;;
47923;Laerm;33688;44.354;9.228;2023-11-21T03:18:39;37.16;35.72;41.45;;
47923;Laerm;33688;44.354;9.228;2023-11-21T03:21:06;37.17;35.70;41.35;;
47923;Laerm;33688;44.354;9.228;2023-11-21T03:23:35;37.13;35.69;41.25;;
47923;Laerm;33688;44.354;9.228;2023-11-21T03:26:03;37.14;35.61;41.24;;
47923;Laerm;33688;44.354;9.228;2023-11-21T03:28:29;37.14;35.64;41.45;;
47923;Laerm;33688;44.354;9.228;2023-11-21T03:30:56;37.12;35.76;41.36;;
47923;Laerm;33688;44.354;9.228;2023-11-21T03:33:23;37.12;35.70;41.32;;
47923;Laerm;33688;44.354;9.228;2023-11-21T03:35:49;37.13;35.64;41.20;;
47923;Laerm;33688;44.354;9.228;2023-11-21T03:38:15;37.12;35.77;41.12;;
47923;Laerm;33688;44.354;9.228;2023-11-21T03:40:42;36.93;35.08;41.09;;
47923;Laerm;33688;44.354;9.228;2023-11-21T03:43:08;36.67;35.07;41.17;;
47923;Laerm;33688;44.354;9.228;2023-11-21T03:45:33;36.66;35.19;41.23;;
47923;Laerm;33688;44.354;9.228;2023-11-21T03:47:59;36.67;35.14;41.21;;
47923;Laerm;33688;44.354;9.228;2023-11-21T03:50:29;36.64;35.09;41.28;;
47923;Laerm;33688;44.354;9.228;2023-11-21T03:53:00;36.64;35.11;40.93;;
47923;Laerm;33688;44.354;9.228;2023-11-21T03:55:27;36.71;35.04;42.69;;
47923;Laerm;33688;44.354;9.228;2023-11-21T03:57:53;36.67;34.99;41.20;;
47923;Laerm;33688;44.354;9.228;2023-11-21T04:00:20;36.63;35.13;40.99;;
47923;Laerm;33688;44.354;9.228;2023-11-21T04:02:46;36.64;35.13;40.89;;
47923;Laerm;33688;44.354;9.228;2023-11-21T04:05:12;36.64;34.94;41.11;;
47923;Laerm;33688;44.354;9.228;2023-11-21T04:07:38;36.65;34.89;41.24;;
47923;Laerm;33688;44.354;9.228;2023-11-21T04:10:06;36.62;34.87;41.05;;
47923;Laerm;33688;44.354;9.228;2023-11-21T04:12:35;36.62;35.09;41.14;;
47923;Laerm;33688;44.354;9.228;2023-11-21T04:15:03;36.67;34.98;41.16;;
47923;Laerm;33688;44.354;9.228;2023-11-21T04:17:29;36.65;34.99;41.14;;
47923;Laerm;33688;44.354;9.228;2023-11-21T04:19:54;36.65;35.10;40.93;;
47923;Laerm;33688;44.354;9.228;2023-11-21T04:22:20;36.68;35.04;41.30;;
47923;Laerm;33688;44.354;9.228;2023-11-21T04:24:46;36.67;35.17;40.92;;
47923;Laerm;33688;44.354;9.228;2023-11-21T04:27:12;36.66;35.10;40.99;;
47923;Laerm;33688;44.354;9.228;2023-11-21T04:29:39;36.65;34.96;41.13;;
47923;Laerm;33688;44.354;9.228;2023-11-21T04:32:07;36.65;35.00;41.05;;
47923;Laerm;33688;44.354;9.228;2023-11-21T04:34:33;36.66;34.97;40.89;;
47923;Laerm;33688;44.354;9.228;2023-11-21T04:37:00;36.68;35.15;41.18;;
47923;Laerm;33688;44.354;9.228;2023-11-21T04:39:26;36.65;35.00;41.08;;
47923;Laerm;33688;44.354;9.228;2023-11-21T04:41:52;36.68;35.07;41.15;;
47923;Laerm;33688;44.354;9.228;2023-11-21T04:44:18;36.75;35.14;43.42;;
47923;Laerm;33688;44.354;9.228;2023-11-21T04:46:45;36.65;34.98;41.35;;
47923;Laerm;33688;44.354;9.228;2023-11-21T04:49:11;36.84;34.95;41.13;;
47923;Laerm;33688;44.354;9.228;2023-11-21T04:51:38;36.65;35.07;41.05;;
47923;Laerm;33688;44.354;9.228;2023-11-21T04:54:03;36.63;35.11;40.99;;
47923;Laerm;33688;44.354;9.228;2023-11-21T04:56:31;36.64;34.79;40.91;;
47923;Laerm;33688;44.354;9.228;2023-11-21T04:58:57;36.66;35.15;41.14;;
47923;Laerm;33688;44.354;9.228;2023-11-21T05:01:23;36.64;35.02;41.36;;
47923;Laerm;33688;44.354;9.228;2023-11-21T05:03:48;36.71;35.12;46.06;;
47923;Laerm;33688;44.354;9.228;2023-11-21T05:06:14;36.66;35.11;44.70;;
47923;Laerm;33688;44.354;9.228;2023-11-21T05:08:40;36.61;34.98;41.16;;
47923;Laerm;33688;44.354;9.228;2023-11-21T05:11:06;36.62;35.12;40.96;;
47923;Laerm;33688;44.354;9.228;2023-11-21T05:13:36;36.62;35.06;41.09;;
47923;Laerm;33688;44.354;9.228;2023-11-21T05:16:03;36.64;34.95;40.95;;
47923;Laerm;33688;44.354;9.228;2023-11-21T05:18:32;36.63;34.92;41.03;;
47923;Laerm;33688;44.354;9.228;2023-11-21T05:20:59;36.64;34.91;41.11;;
47923;Laerm;33688;44.354;9.228;2023-11-21T05:23:26;36.63;35.06;41.16;;
47923;Laerm;33688;44.354;9.228;2023-11-21T05:25:53;36.63;35.11;40.87;;
47923;Laerm;33688;44.354;9.228;2023-11-21T05:28:18;36.65;35.11;40.98;;
47923;Laerm;33688;44.354;9.228;2023-11-21T05:30:44;37.11;35.10;45.36;;
47923;Laerm;33688;44.354;9.228;2023-11-21T05:33:10;36.65;35.06;41.14;;
47923;Laerm;33688;44.354;9.228;2023-11-21T05:35:36;36.63;35.09;40.93;;
47923;Laerm;33688;44.354;9.228;2023-11-21T05:38:02;36.96;34.96;48.16;;
47923;Laerm;33688;44.354;9.228;2023-11-21T05:40:27;36.63;35.16;40.91;;
47923;Laerm;33688;44.354;9.228;2023-11-21T05:42:55;36.65;34.97;41.07;;
47923;Laerm;33688;44.354;9.228;2023-11-21T05:45:21;36.62;35.12;41.17;;
47923;Laerm;33688;44.354;9.228;2023-11-21T05:47:47;36.66;35.13;41.17;;
47923;Laerm;33688;44.354;9.228;2023-11-21T05:50:15;36.61;35.03;41.31;;
47923;Laerm;33688;44.354;9.228;2023-11-21T05:52:43;36.63;35.01;41.01;;
47923;Laerm;33688;44.354;9.228;2023-11-21T05:55:09;36.64;35.07;41.15;;
47923;Laerm;33688;44.354;9.228;2023-11-21T05:57:39;36.63;34.89;41.18;;
47923;Laerm;33688;44.354;9.228;2023-11-21T06:00:10;36.65;35.03;41.28;;
47923;Laerm;33688;44.354;9.228;2023-11-21T06:02:38;36.59;34.91;41.12;;
47923;Laerm;33688;44.354;9.228;2023-11-21T06:05:07;36.68;35.19;41.65;;
47923;Laerm;33688;44.354;9.228;2023-11-21T06:07:33;36.70;35.07;41.21;;
47923;Laerm;33688;44.354;9.228;2023-11-21T06:09:58;36.71;35.11;41.07;;
47923;Laerm;33688;44.354;9.228;2023-11-21T06:12:24;36.69;35.10;41.03;;
47923;Laerm;33688;44.354;9.228;2023-11-21T06:14:50;36.70;35.18;40.97;;
47923;Laerm;33688;44.354;9.228;2023-11-21T06:17:16;36.69;35.20;41.23;;
47923;Laerm;33688;44.354;9.228;2023-11-21T06:19:44;36.87;34.79;53.06;;
47923;Laerm;33688;44.354;9.228;2023-11-21T06:22:12;36.71;35.14;41.12;;
47923;Laerm;33688;44.354;9.228;2023-11-21T06:24:37;36.70;35.16;41.26;;
47923;Laerm;33688;44.354;9.228;2023-11-21T06:27:04;36.69;34.94;41.17;;
47923;Laerm;33688;44.354;9.228;2023-11-21T06:29:30;36.70;34.86;41.20;;
47923;Laerm;33688;44.354;9.228;2023-11-21T06:31:57;36.71;35.01;41.16;;
47923;Laerm;33688;44.354;9.228;2023-11-21T06:34:24;36.69;35.15;41.37;;
47923;Laerm;33688;44.354;9.228;2023-11-21T06:36:49;36.72;35.07;41.25;;
47923;Laerm;33688;44.354;9.228;2023-11-21T06:39:15;36.79;35.14;41.20;;
47923;Laerm;33688;44.354;9.228;2023-11-21T06:41:43;36.71;35.06;41.37;;
47923;Laerm;33688;44.354;9.228;2023-11-21T06:44:08;36.70;35.03;41.46;;
47923;Laerm;33688;44.354;9.228;2023-11-21T06:46:34;36.72;34.98;42.72;;
47923;Laerm;33688;44.354;9.228;2023-11-21T06:49:00;37.18;35.22;42.31;;
47923;Laerm;33688;44.354;9.228;2023-11-21T06:51:26;37.21;35.07;43.01;;
47923;Laerm;33688;44.354;9.228;2023-11-21T06:53:52;36.87;35.15;41.56;;
47923;Laerm;33688;44.354;9.228;2023-11-21T06:56:18;36.76;35.09;44.69;;
47923;Laerm;33688;44.354;9.228;2023-11-21T06:58:45;37.00;35.04;42.69;;
47923;Laerm;33688;44.354;9.228;2023-11-21T07:01:15;36.98;35.16;52.03;;
47923;Laerm;33688;44.354;9.228;2023-11-21T07:03:41;36.72;35.07;41.52;;
47923;Laerm;33688;44.354;9.228;2023-11-21T07:06:08;36.83;34.85;47.03;;
47923;Laerm;33688;44.354;9.228;2023-11-21T07:08:35;36.68;35.05;41.04;;
47923;Laerm;33688;44.354;9.228;2023-11-21T07:11:00;36.69;35.18;41.30;;
47923;Laerm;33688;44.354;9.228;2023-11-21T07:13:29;36.70;35.07;41.41;;
47923;Laerm;33688;44.354;9.228;2023-11-21T07:15:54;36.77;35.22;41.16;;
47923;Laerm;33688;44.354;9.228;2023-11-21T07:18:20;36.72;35.15;40.87;;
47923;Laerm;33688;44.354;9.228;2023-11-21T07:20:46;36.72;35.24;41.30;;
47923;Laerm;33688;44.354;9.228;2023-11-21T07:23:13;36.73;34.93;41.29;;
47923;Laerm;33688;44.354;9.228;2023-11-21T07:25:38;36.72;35.15;41.20;;
47923;Laerm;33688;44.354;9.228;2023-11-21T07:28:04;36.75;35.17;41.09;;
47923;Laerm;33688;44.354;9.228;2023-11-21T07:30:31;40.41;35.05;60.20;;
47923;Laerm;33688;44.354;9.228;2023-11-21T07:32:59;44.38;35.45;60.86;;
47923;Laerm;33688;44.354;9.228;2023-11-21T07:35:25;42.81;35.26;60.92;;
47923;Laerm;33688;44.354;9.228;2023-11-21T07:37:52;43.04;35.33;60.16;;
47923;Laerm;33688;44.354;9.228;2023-11-21T07:40:19;40.61;35.39;59.10;;
47923;Laerm;33688;44.354;9.228;2023-11-21T07:42:44;46.42;36.44;63.15;;
47923;Laerm;33688;44.354;9.228;2023-11-21T07:45:11;53.77;36.47;71.96;;
47923;Laerm;33688;44.354;9.228;2023-11-21T07:47:37;52.86;41.07;74.93;;
47923;Laerm;33688;44.354;9.228;2023-11-21T07:50:05;44.77;41.33;61.38;;
47923;Laerm;33688;44.354;9.228;2023-11-21T07:52:33;46.07;41.39;60.68;;
47923;Laerm;33688;44.354;9.228;2023-11-21T07:54:59;50.64;42.35;73.76;;
47923;Laerm;33688;44.354;9.228;2023-11-21T07:57:24;59.35;41.93;77.03;;
47923;Laerm;33688;44.354;9.228;2023-11-21T07:59:51;50.22;42.78;62.89;;
47923;Laerm;33688;44.354;9.228;2023-11-21T08:02:19;71.37;43.17;88.56;;
47923;Laerm;33688;44.354;9.228;2023-11-21T08:04:46;72.42;43.02;87.24;;
47923;Laerm;33688;44.354;9.228;2023-11-21T08:07:17;68.72;42.98;83.76;;
47923;Laerm;33688;44.354;9.228;2023-11-21T08:09:43;66.03;42.55;85.17;;
47923;Laerm;33688;44.354;9.228;2023-11-21T08:12:10;60.06;42.16;80.32;;
47923;Laerm;33688;44.354;9.228;2023-11-21T08:14:36;51.78;42.60;68.61;;
47923;Laerm;33688;44.354;9.228;2023-11-21T08:17:04;48.04;42.68;62.23;;
47923;Laerm;33688;44.354;9.228;2023-11-21T08:19:30;51.03;43.05;65.61;;
47923;Laerm;33688;44.354;9.228;2023-11-21T08:21:58;60.22;42.33;85.55;;
47923;Laerm;33688;44.354;9.228;2023-11-21T08:24:25;59.38;42.22;84.42;;
47923;Laerm;33688;44.354;9.228;2023-11-21T08:26:50;52.07;42.04;76.34;;
47923;Laerm;33688;44.354;9.228;2023-11-21T08:29:20;49.30;41.84;66.97;;
47923;Laerm;33688;44.354;9.228;2023-11-21T08:31:47;48.90;42.02;71.09;;
47923;Laerm;33688;44.354;9.228;2023-11-21T08:34:13;46.62;42.13;62.07;;
47923;Laerm;33688;44.354;9.228;2023-11-21T08:36:43;59.63;41.76;85.20;;
47923;Laerm;33688;44.354;9.228;2023-11-21T08:39:10;56.07;42.49;77.08;;
47923;Laerm;33688;44.354;9.228;2023-11-21T08:41:36;55.36;42.32;79.17;;
47923;Laerm;33688;44.354;9.228;2023-11-21T08:44:02;45.74;42.39;57.67;;
47923;Laerm;33688;44.354;9.228;2023-11-21T08:46:33;47.08;41.92;61.16;;
47923;Laerm;33688;44.354;9.228;2023-11-21T08:49:01;58.49;42.37;72.05;;
47923;Laerm;33688;44.354;9.228;2023-11-21T08:51:27;46.59;41.85;60.40;;
47923;Laerm;33688;44.354;9.228;2023-11-21T08:53:53;46.12;42.04;57.26;;
47923;Laerm;33688;44.354;9.228;2023-11-21T08:56:18;46.38;42.36;59.20;;
47923;Laerm;33688;44.354;9.228;2023-11-21T08:58:46;47.93;42.18;65.05;;
47923;Laerm;33688;44.354;9.228;2023-11-21T09:01:14;45.28;42.14;57.51;;
47923;Laerm;33688;44.354;9.228;2023-11-21T09:03:40;48.70;42.05;64.47;;
47923;Laerm;33688;44.354;9.228;2023-11-21T09:06:06;60.05;41.99;82.52;;
47923;Laerm;33688;44.354;9.228;2023-11-21T09:08:35;50.23;42.05;65.29;;
47923;Laerm;33688;44.354;9.228;2023-11-21T09:11:01;50.40;41.50;68.82;;
47923;Laerm;33688;44.354;9.228;2023-11-21T09:13:27;52.14;41.42;70.84;;
47923;Laerm;33688;44.354;9.228;2023-11-21T09:15:53;50.92;41.79;63.93;;
47923;Laerm;33688;44.354;9.228;2023-11-21T09:18:19;46.71;41.84;58.01;;
47923;Laerm;33688;44.354;9.228;2023-11-21T09:20:46;46.81;41.64;59.94;;
47923;Laerm;33688;44.354;9.228;2023-11-21T09:23:12;50.57;42.36;66.89;;
47923;Laerm;33688;44.354;9.228;2023-11-21T09:25:37;52.56;42.36;66.71;;
47923;Laerm;33688;44.354;9.228;2023-11-21T09:28:06;47.66;42.15;65.48;;
47923;Laerm;33688;44.354;9.228;2023-11-21T09:30:35;45.54;41.93;61.85;;
47923;Laerm;33688;44.354;9.228;2023-11-21T09:33:02;52.47;42.66;63.27;;
47923;Laerm;33688;44.354;9.228;2023-11-21T09:35:28;58.05;42.90;74.33;;
47923;Laerm;33688;44.354;9.228;2023-11-21T09:37:54;55.58;41.80;82.75;;
47923;Laerm;33688;44.354;9.228;2023-11-21T09:40:22;44.33;41.97;59.36;;
47923;Laerm;33688;44.354;9.228;2023-11-21T09:42:56;43.75;42.33;52.31;;
47923;Laerm;33688;44.354;9.228;2023-11-21T09:45:29;47.28;42.01;68.28;;
47923;Laerm;33688;44.354;9.228;2023-11-21T09:47:59;62.48;41.69;79.51;;
47923;Laerm;33688;44.354;9.228;2023-11-21T09:50:26;62.56;41.80;80.03;;
47923;Laerm;33688;44.354;9.228;2023-11-21T09:53:29;51.21;42.16;69.06;;
47923;Laerm;33688;44.354;9.228;2023-11-21T09:55:57;54.26;41.41;80.49;;
47923;Laerm;33688;44.354;9.228;2023-11-21T09:58:27;54.42;41.83;79.35;;
47923;Laerm;33688;44.354;9.228;2023-11-21T10:00:57;50.80;41.79;76.59;;
47923;Laerm;33688;44.354;9.228;2023-11-21T10:03:25;49.58;41.73;74.17;;
47923;Laerm;33688;44.354;9.228;2023-11-21T10:05:51;54.94;42.11;75.85;;
47923;Laerm;33688;44.354;9.228;2023-11-21T10:08:20;57.70;41.92;81.29;;
47923;Laerm;33688;44.354;9.228;2023-11-21T10:10:53;56.07;41.97;76.65;;
47923;Laerm;33688;44.354;9.228;2023-11-21T10:13:18;52.45;41.71;70.75;;
47923;Laerm;33688;44.354;9.228;2023-11-21T10:15:50;49.04;41.52;74.18;;
47923;Laerm;33688;44.354;9.228;2023-11-21T10:18:17;56.25;41.67;80.05;;
47923;Laerm;33688;44.354;9.228;2023-11-21T10:20:44;65.67;42.06;82.72;;
47923;Laerm;33688;44.354;9.228;2023-11-21T10:23:19;66.00;42.25;81.44;;
47923;Laerm;33688;44.354;9.228;2023-11-21T10:25:46;67.59;42.33;81.43;;
47923;Laerm;33688;44.354;9.228;2023-11-21T10:28:12;68.15;42.64;84.78;;
47923;Laerm;33688;44.354;9.228;2023-11-21T10:30:39;65.50;42.12;87.59;;
47923;Laerm;33688;44.354;9.228;2023-11-21T10:33:07;64.94;42.29;83.66;;
47923;Laerm;33688;44.354;9.228;2023-11-21T10:38:13;57.60;41.55;79.43;;
47923;Laerm;33688;44.354;9.228;2023-11-21T10:40:42;49.46;42.18;64.07;;
47923;Laerm;33688;44.354;9.228;2023-11-21T10:43:11;48.62;42.11;67.31;;
47923;Laerm;33688;44.354;9.228;2023-11-21T10:45:41;48.10;41.03;62.64;;
47923;Laerm;33688;44.354;9.228;2023-11-21T10:48:10;53.06;41.45;71.99;;
47923;Laerm;33688;44.354;9.228;2023-11-21T10:50:46;60.15;41.87;78.35;;
47923;Laerm;33688;44.354;9.228;2023-11-21T10:53:12;56.13;41.98;78.23;;
47923;Laerm;33688;44.354;9.228;2023-11-21T10:55:39;52.09;42.39;73.75;;
47923;Laerm;33688;44.354;9.228;2023-11-21T10:58:06;51.66;42.84;63.57;;
47923;Laerm;33688;44.354;9.228;2023-11-21T11:00:34;46.57;42.33;57.63;;
47923;Laerm;33688;44.354;9.228;2023-11-21T11:03:00;53.07;41.85;75.75;;
47923;Laerm;33688;44.354;9.228;2023-11-21T11:05:28;45.76;42.62;60.04;;
47923;Laerm;33688;44.354;9.228;2023-11-21T11:08:10;53.42;42.97;78.97;;
47923;Laerm;33688;44.354;9.228;2023-11-21T11:10:39;60.19;42.80;82.65;;
47923;Laerm;33688;44.354;9.228;2023-11-21T11:13:06;65.25;42.61;85.59;;
47923;Laerm;33688;44.354;9.228;2023-11-21T11:15:35;52.96;42.67;68.99;;
47923;Laerm;33688;44.354;9.228;2023-11-21T11:18:02;58.01;42.63;82.12;;
47923;Laerm;33688;44.354;9.228;2023-11-21T11:20:34;53.86;41.55;76.61;;
47923;Laerm;33688;44.354;9.228;2023-11-21T11:28:21;52.00;41.38;66.58;;
47923;Laerm;33688;44.354;9.228;2023-11-21T11:31:04;49.23;41.82;66.28;;
47923;Laerm;33688;44.354;9.228;2023-11-21T11:33:39;47.87;42.59;64.85;;
47923;Laerm;33688;44.354;9.228;2023-11-21T11:38:59;58.54;42.08;86.94;;
47923;Laerm;33688;44.354;9.228;2023-11-21T11:41:30;44.39;42.40;53.66;;
47923;Laerm;33688;44.354;9.228;2023-11-21T11:43:59;51.75;42.68;75.79;;
47923;Laerm;33688;44.354;9.228;2023-11-21T11:46:44;45.02;41.91;63.59;;
47923;Laerm;33688;44.354;9.228;2023-11-21T11:49:29;43.48;41.59;54.38;;
47923;Laerm;33688;44.354;9.228;2023-11-21T11:52:53;44.31;42.15;59.31;;
47923;Laerm;33688;44.354;9.228;2023-11-21T11:55:24;46.37;42.35;60.24;;
47923;Laerm;33688;44.354;9.228;2023-11-21T11:57:52;45.47;42.37;56.67;;
47923;Laerm;33688;44.354;9.228;2023-11-21T12:03:02;45.08;42.34;58.13;;
47923;Laerm;33688;44.354;9.228;2023-11-21T12:05:33;51.10;42.17;63.41;;
47923;Laerm;33688;44.354;9.228;2023-11-21T12:08:05;46.88;42.01;65.17;;
47923;Laerm;33688;44.354;9.228;2023-11-21T12:10:37;43.22;42.00;45.75;;
47923;Laerm;33688;44.354;9.228;2023-11-21T12:13:07;43.14;41.91;45.39;;
47923;Laerm;33688;44.354;9.228;2023-11-21T12:15:34;43.20;42.24;46.89;;
47923;Laerm;33688;44.354;9.228;2023-11-21T12:18:01;43.04;41.94;45.99;;
47923;Laerm;33688;44.354;9.228;2023-11-21T12:20:27;43.30;41.77;47.14;;
47923;Laerm;33688;44.354;9.228;2023-11-21T12:22:58;43.34;42.33;48.18;;
47923;Laerm;33688;44.354;9.228;2023-11-21T12:25:29;43.29;42.18;52.44;;
47923;Laerm;33688;44.354;9.228;2023-11-21T12:27:58;43.08;42.14;45.01;;
47923;Laerm;33688;44.354;9.228;2023-11-21T12:30:30;43.11;42.02;44.99;;
47923;Laerm;33688;44.354;9.228;2023-11-21T12:32:59;43.12;41.75;44.81;;
47923;Laerm;33688;44.354;9.228;2023-11-21T12:35:31;43.06;42.01;44.82;;
47923;Laerm;33688;44.354;9.228;2023-11-21T12:38:01;43.08;42.12;49.59;;
47923;Laerm;33688;44.354;9.228;2023-11-21T12:40:28;43.20;41.91;57.54;;
47923;Laerm;33688;44.354;9.228;2023-11-21T12:42:59;43.15;41.98;47.73;;
47923;Laerm;33688;44.354;9.228;2023-11-21T12:45:28;42.96;41.90;53.24;;
47923;Laerm;33688;44.354;9.228;2023-11-21T12:48:03;42.93;41.73;54.20;;
47923;Laerm;33688;44.354;9.228;2023-11-21T12:50:34;42.85;41.81;51.86;;
47923;Laerm;33688;44.354;9.228;2023-11-21T12:53:04;42.70;41.58;44.28;;
47923;Laerm;33688;44.354;9.228;2023-11-21T12:55:34;42.61;41.43;44.46;;
47923;Laerm;33688;44.354;9.228;2023-11-21T12:58:06;42.66;41.37;52.22;;
47923;Laerm;33688;44.354;9.228;2023-11-21T13:00:42;42.40;41.28;44.63;;
47923;Laerm;33688;44.354;9.228;2023-11-21T13:03:11;42.42;41.26;47.01;;
47923;Laerm;33688;44.354;9.228;2023-11-21T13:05:48;42.46;41.27;45.40;;
47923;Laerm;33688;44.354;9.228;2023-11-21T13:08:21;42.81;41.49;57.59;;
47923;Laerm;33688;44.354;9.228;2023-11-21T13:10:53;42.48;41.01;56.43;;
47923;Laerm;33688;44.354;9.228;2023-11-21T13:13:24;42.32;40.95;44.50;;
47923;Laerm;33688;44.354;9.228;2023-11-21T13:15:52;42.41;41.17;44.74;;
47923;Laerm;33688;44.354;9.228;2023-11-21T13:18:19;44.20;41.22;60.94;;
47923;Laerm;33688;44.354;9.228;2023-11-21T13:20:47;42.65;41.44;55.18;;
47923;Laerm;33688;44.354;9.228;2023-11-21T13:23:13;43.00;41.08;50.86;;
47923;Laerm;33688;44.354;9.228;2023-11-21T13:25:39;48.11;41.69;63.79;;
47923;Laerm;33688;44.354;9.228;2023-11-21T13:28:08;47.92;41.27;63.12;;
47923;Laerm;33688;44.354;9.228;2023-11-21T13:30:38;50.88;41.29;65.96;;
47923;Laerm;33688;44.354;9.228;2023-11-21T13:33:06;51.27;41.66;70.89;;
47923;Laerm;33688;44.354;9.228;2023-11-21T13:35:35;50.65;42.00;66.95;;
47923;Laerm;33688;44.354;9.228;2023-11-21T13:38:11;51.16;41.99;72.31;;
47923;Laerm;33688;44.354;9.228;2023-11-21T13:40:40;55.00;41.55;77.56;;
47923;Laerm;33688;44.354;9.228;2023-11-21T13:43:13;52.94;42.27;78.79;;
47923;Laerm;33688;44.354;9.228;2023-11-21T13:45:45;50.40;42.29;78.40;;
47923;Laerm;33688;44.354;9.228;2023-11-21T13:48:13;45.99;42.06;57.75;;
47923;Laerm;33688;44.354;9.228;2023-11-21T13:50:48;47.35;42.45;58.01;;
47923;Laerm;33688;44.354;9.228;2023-11-21T13:53:24;45.15;42.27;58.90;;
47923;Laerm;33688;44.354;9.228;2023-11-21T13:55:53;47.04;42.12;63.65;;
47923;Laerm;33688;44.354;9.228;2023-11-21T13:58:26;44.73;41.80;59.95;;
47923;Laerm;33688;44.354;9.228;2023-11-21T14:01:07;47.60;41.78;61.15;;
47923;Laerm;33688;44.354;9.228;2023-11-21T14:03:50;52.84;41.99;66.27;;